Time;durP1;ratioP1;P1;durP2;ratioP2;P2;SDS_P1;SDS_P2;PMS_P1;PMS_P2;Temp;Humidity;BMP_temperature;BMP_pressure;BME280_temperature;BME280_humidity;BME280_pressure;Samples;Min_cycle;Max_cycle;Signal;HPM_P1;HPM_P2
2022/08/02 00:02:05;;;;;;;4.07;1.83;;;12.90;66.20;;;;;;5028279;28;20670;-62
2022/08/02 00:04:32;;;;;;;1.65;1.55;;;12.90;62.10;;;;;;5047499;28;20203;-62
2022/08/02 00:06:59;;;;;;;4.68;2.28;;;12.80;64.20;;;;;;5021717;28;20383;-62
2022/08/02 00:09:26;;;;;;;2.47;1.83;;;12.80;58.50;;;;;;5034235;28;20208;-63
2022/08/02 00:11:54;;;;;;;3.35;1.95;;;12.50;60.70;;;;;;5013145;28;20213;-62
2022/08/02 00:14:20;;;;;;;3.03;2.13;;;12.70;57.30;;;;;;5038947;28;20208;-62
2022/08/02 00:16:47;;;;;;;3.22;2.20;;;12.70;58.70;;;;;;5034940;28;20197;-62
2022/08/02 00:19:14;;;;;;;3.60;2.33;;;12.60;75.70;;;;;;5031708;28;20991;-62
2022/08/02 00:21:41;;;;;;;6.93;2.38;;;12.50;70.00;;;;;;5023491;28;20205;-63
2022/08/02 00:24:08;;;;;;;6.47;2.10;;;12.50;70.60;;;;;;5029026;28;20212;-63
2022/08/02 00:26:35;;;;;;;4.32;2.08;;;;;;;;;;5029804;28;20233;-62
2022/08/02 00:29:04;;;;;;;2.83;1.90;;;12.50;65.30;;;;;;5034180;28;20217;-63
2022/08/02 00:31:31;;;;;;;3.47;1.95;;;12.40;67.20;;;;;;5018078;28;20207;-63
2022/08/02 00:33:58;;;;;;;7.78;2.20;;;12.60;73.40;;;;;;5037039;28;20192;-62
2022/08/02 00:36:25;;;;;;;4.22;2.40;;;12.50;85.50;;;;;;5036310;28;20212;-62
2022/08/02 00:38:51;;;;;;;2.53;2.10;;;12.50;81.40;;;;;;5022705;28;20597;-62
2022/08/02 00:41:21;;;;;;;3.53;2.38;;;12.20;80.80;;;;;;5028564;28;20224;-62
2022/08/02 00:43:50;;;;;;;5.38;2.30;;;12.40;78.00;;;;;;5007315;28;20240;-62
2022/08/02 00:46:19;;;;;;;5.65;2.35;;;12.20;85.80;;;;;;5032020;28;20229;-62
2022/08/02 00:48:47;;;;;;;5.05;2.05;;;12.40;82.40;;;;;;5018295;28;20585;-63
2022/08/02 00:51:16;;;;;;;5.38;1.98;;;12.40;83.40;;;;;;5013588;28;20969;-62
2022/08/02 00:53:42;;;;;;;3.15;2.20;;;12.40;88.50;;;;;;5028410;28;22833;-62
2022/08/02 00:56:09;;;;;;;1.80;1.70;;;12.40;84.30;;;;;;5030636;28;20204;-61
2022/08/02 00:58:36;;;;;;;3.63;1.85;;;12.20;90.70;;;;;;5015122;28;20220;-62
2022/08/02 01:01:03;;;;;;;2.85;1.80;;;12.40;84.40;;;;;;5030923;28;23741;-62
2022/08/02 01:03:31;;;;;;;5.90;1.88;;;12.40;83.30;;;;;;5036302;28;20208;-62
2022/08/02 01:05:58;;;;;;;2.25;1.67;;;12.40;82.20;;;;;;5033926;28;20225;-62
2022/08/02 01:08:25;;;;;;;4.15;1.50;;;12.30;74.10;;;;;;5045223;28;20666;-62
2022/08/02 01:10:52;;;;;;;3.47;1.30;;;11.90;81.40;;;;;;5013179;28;20299;-63
2022/08/02 01:13:19;;;;;;;1.38;1.27;;;13.20;76.80;;;;;;5018805;28;20220;-62
2022/08/02 01:15:52;;;;;;;1.65;1.40;;;12.00;70.40;;;;;;5040207;28;20201;-62
2022/08/02 01:18:25;;;;;;;1.45;1.13;;;12.00;70.20;;;;;;5013794;28;20205;-62
2022/08/02 01:21:32;;;;;;;1.10;0.93;;;12.00;77.50;;;;;;5028141;28;20197;-62
2022/08/02 01:24:16;;;;;;;1.90;1.10;;;11.80;78.10;;;;;;5035264;28;20287;-62
2022/08/02 01:26:50;;;;;;;0.90;0.70;;;11.70;76.00;;;;;;5002548;28;20220;-62
2022/08/02 01:29:26;;;;;;;0.90;0.90;;;11.50;83.60;;;;;;5027652;28;20270;-62
2022/08/02 01:31:59;;;;;;;1.00;0.75;;;11.70;80.40;;;;;;5028461;28;20192;-62
2022/08/02 01:34:33;;;;;;;1.45;0.85;;;11.70;88.40;;;;;;5032067;28;20209;-62
2022/08/02 01:37:07;;;;;;;0.95;0.90;;;12.40;90.40;;;;;;5032956;28;20581;-62
2022/08/02 01:39:36;;;;;;;1.38;1.27;;;11.80;90.70;;;;;;5039542;28;20201;-62
2022/08/02 01:42:04;;;;;;;1.73;1.48;;;11.70;86.70;;;;;;5017913;28;20235;-62
2022/08/02 01:44:36;;;;;;;3.35;1.77;;;11.80;92.10;;;;;;5018277;28;20713;-62
2022/08/02 01:47:07;;;;;;;2.72;1.40;;;11.90;92.80;;;;;;5024965;28;20727;-62
2022/08/02 01:49:35;;;;;;;4.65;1.58;;;12.00;90.50;;;;;;5031660;28;20209;-61
2022/08/02 01:52:22;;;;;;;4.32;2.60;;;11.90;84.00;;;;;;5045865;28;20197;-62
2022/08/02 01:54:52;;;;;;;2.95;1.98;;;11.40;84.10;;;;;;5019974;28;20216;-62
2022/08/02 01:57:21;;;;;;;2.10;1.90;;;12.50;78.60;;;;;;5029906;28;20228;-62
2022/08/02 01:59:50;;;;;;;3.40;1.98;;;11.70;86.70;;;;;;5017473;28;20208;-62
2022/08/02 02:02:18;;;;;;;5.35;1.70;;;9.80;82.00;;;;;;5042925;28;20957;-62
2022/08/02 02:04:46;;;;;;;5.43;2.03;;;11.60;90.30;;;;;;5026848;28;20545;-62
2022/08/02 02:07:15;;;;;;;2.85;1.63;;;11.60;91.60;;;;;;5022121;28;20260;-62
2022/08/02 02:09:43;;;;;;;1.60;1.50;;;11.60;91.30;;;;;;5028777;28;20393;-62
2022/08/02 02:12:12;;;;;;;4.35;1.83;;;11.50;88.70;;;;;;5019623;28;20714;-62
2022/08/02 02:14:40;;;;;;;3.80;1.83;;;11.50;91.00;;;;;;5030865;28;20203;-62
2022/08/02 02:17:10;;;;;;;2.55;1.60;;;11.60;94.20;;;;;;5027440;28;20201;-62
2022/08/02 02:19:38;;;;;;;4.45;2.05;;;11.20;94.10;;;;;;5032305;28;20209;-62
2022/08/02 02:22:05;;;;;;;3.17;1.70;;;11.30;93.70;;;;;;5020738;28;20867;-62
2022/08/02 02:24:33;;;;;;;2.42;1.83;;;11.50;92.40;;;;;;5020990;28;20204;-62
2022/08/02 02:27:01;;;;;;;2.65;1.92;;;11.50;93.00;;;;;;5025713;28;20233;-63
2022/08/02 02:29:31;;;;;;;3.65;2.10;;;11.50;93.70;;;;;;5032306;28;20216;-62
2022/08/02 02:32:00;;;;;;;4.53;2.30;;;11.60;95.20;;;;;;5020084;28;20210;-62
2022/08/02 02:34:31;;;;;;;5.47;1.90;;;11.80;95.90;;;;;;5028437;28;20981;-62
2022/08/02 02:37:02;;;;;;;4.55;2.05;;;11.60;93.80;;;;;;5029189;28;20204;-62
2022/08/02 02:39:31;;;;;;;4.90;2.15;;;11.40;95.40;;;;;;5021720;28;20212;-62
2022/08/02 02:42:02;;;;;;;1.95;1.80;;;11.70;93.60;;;;;;5027912;28;20247;-62
2022/08/02 02:44:31;;;;;;;5.57;1.90;;;11.40;93.90;;;;;;5028871;28;20609;-62
2022/08/02 02:47:01;;;;;;;4.65;2.47;;;11.40;91.10;;;;;;5018188;28;20228;-62
2022/08/02 02:49:32;;;;;;;5.75;2.40;;;11.20;94.10;;;;;;5029458;28;20419;-62
2022/08/02 02:51:59;;;;;;;2.95;1.73;;;11.40;92.40;;;;;;5027744;28;20212;-62
2022/08/02 02:54:28;;;;;;;4.07;2.17;;;11.50;94.40;;;;;;5025129;28;20205;-62
2022/08/02 02:56:57;;;;;;;6.13;2.20;;;11.60;96.10;;;;;;5033619;28;20243;-65
2022/08/02 02:59:24;;;;;;;3.00;2.20;;;11.60;96.40;;;;;;5038152;28;20201;-63
2022/08/02 03:01:52;;;;;;;7.07;2.35;;;11.70;96.90;;;;;;5038154;28;22182;-62
2022/08/02 03:04:21;;;;;;;3.75;2.15;;;11.70;96.20;;;;;;5011485;28;20208;-61
2022/08/02 03:06:49;;;;;;;7.85;2.60;;;11.90;95.70;;;;;;5039392;28;20244;-62
2022/08/02 03:09:16;;;;;;;4.65;2.03;;;11.60;92.70;;;;;;5019447;28;20197;-62
2022/08/02 03:11:43;;;;;;;2.65;1.70;;;10.10;91.90;;;;;;5029511;28;20207;-63
2022/08/02 03:14:11;;;;;;;7.15;1.75;;;11.50;92.60;;;;;;5033988;28;20223;-62
2022/08/02 03:16:45;;;;;;;6.85;2.00;;;11.40;91.40;;;;;;5034338;28;20209;-62
2022/08/02 03:19:13;;;;;;;2.22;1.92;;;11.00;91.70;;;;;;5019608;28;20212;-63
2022/08/02 03:21:41;;;;;;;4.10;2.13;;;11.20;90.10;;;;;;5016472;28;20678;-62
2022/08/02 03:24:10;;;;;;;4.28;2.17;;;11.20;96.80;;;;;;5037055;28;20694;-62
2022/08/02 03:26:37;;;;;;;5.32;2.22;;;11.30;95.10;;;;;;5030961;28;20220;-63
2022/08/02 03:29:05;;;;;;;3.10;2.00;;;11.10;95.40;;;;;;5035219;28;20201;-62
2022/08/02 03:31:32;;;;;;;4.03;2.53;;;11.20;93.30;;;;;;5038540;28;20200;-63
2022/08/02 03:34:01;;;;;;;5.32;2.28;;;11.20;95.70;;;;;;5020779;28;20215;-62
2022/08/02 03:36:31;;;;;;;5.65;2.38;;;11.20;98.90;;;;;;5035083;28;20213;-62
2022/08/02 03:38:59;;;;;;;2.47;2.25;;;11.20;96.80;;;;;;5037681;28;20208;-62
2022/08/02 03:41:29;;;;;;;6.63;3.00;;;11.00;98.90;;;;;;5046472;28;20760;-62
2022/08/02 03:43:57;;;;;;;5.95;2.30;;;10.30;96.30;;;;;;5026644;28;20227;-62
2022/08/02 03:46:25;;;;;;;2.60;2.17;;;11.00;99.90;;;;;;5033274;28;20204;-62
2022/08/02 03:48:53;;;;;;;3.53;2.22;;;11.20;97.40;;;;;;5012545;28;20223;-62
2022/08/02 03:51:20;;;;;;;3.33;2.42;;;10.90;97.30;;;;;;5034320;28;20207;-63
2022/08/02 03:53:48;;;;;;;3.90;2.67;;;11.20;97.30;;;;;;5049172;28;20193;-62
2022/08/02 03:56:16;;;;;;;5.20;2.50;;;11.20;97.30;;;;;;5032501;28;20689;-62
2022/08/02 03:58:44;;;;;;;8.63;2.65;;;11.30;99.70;;;;;;5024491;28;21211;-62
2022/08/02 04:01:11;;;;;;;6.75;2.72;;;11.30;98.30;;;;;;5020035;28;20205;-61
2022/08/02 04:03:38;;;;;;;3.72;2.67;;;11.40;99.90;;;;;;5005792;28;20671;-62
2022/08/02 04:06:05;;;;;;;5.28;2.65;;;11.40;98.20;;;;;;5045983;28;20259;-62
2022/08/02 04:08:32;;;;;;;2.67;2.38;;;11.40;99.10;;;;;;5029619;28;20721;-62
2022/08/02 04:13:45;;;;;;;7.63;3.42;;;11.50;98.80;;;;;;5019403;28;20373;-62
2022/08/02 04:16:15;;;;;;;8.20;3.05;;;11.50;98.50;;;;;;5030841;28;20204;-62
2022/08/02 04:18:50;;;;;;;6.95;2.83;;;11.50;97.50;;;;;;5030204;28;20224;-62
2022/08/02 04:21:20;;;;;;;2.72;2.03;;;11.40;96.10;;;;;;5006683;28;20236;-62
2022/08/02 04:23:50;;;;;;;2.45;2.10;;;11.30;94.60;;;;;;5027218;28;20577;-62
2022/08/02 04:26:18;;;;;;;2.38;2.08;;;11.20;97.20;;;;;;5038470;28;20208;-62
2022/08/02 04:28:47;;;;;;;7.47;2.30;;;11.50;97.70;;;;;;5027044;28;20220;-62
2022/08/02 04:31:15;;;;;;;3.40;2.22;;;11.30;97.90;;;;;;5015691;28;20220;-62
2022/08/02 04:33:42;;;;;;;5.30;2.42;;;10.80;95.80;;;;;;5026005;28;20220;-62
2022/08/02 04:36:13;;;;;;;2.33;2.00;;;11.70;96.30;;;;;;5014747;28;26038;-62
2022/08/02 04:38:40;;;;;;;6.15;2.13;;;11.50;95.40;;;;;;5022930;28;20560;-63
2022/08/02 04:41:06;;;;;;;3.85;2.22;;;11.40;94.60;;;;;;5027625;28;20209;-61
2022/08/02 04:43:33;;;;;;;4.28;2.28;;;7.80;98.40;;;;;;5022640;28;20223;-62
2022/08/02 04:46:02;;;;;;;4.90;2.17;;;11.40;97.20;;;;;;5032574;28;20295;-62
2022/08/02 04:48:29;;;;;;;3.05;2.03;;;11.40;99.40;;;;;;5035193;28;20247;-62
2022/08/02 04:50:56;;;;;;;7.63;2.00;;;14.10;99.90;;;;;;5003861;28;20224;-62
2022/08/02 04:53:23;;;;;;;3.08;2.25;;;11.50;95.70;;;;;;5021531;28;20205;-62
2022/08/02 04:55:50;;;;;;;3.72;2.40;;;11.50;96.70;;;;;;5029377;28;20217;-62
2022/08/02 04:58:17;;;;;;;4.70;2.53;;;11.50;96.90;;;;;;5045789;28;20239;-62
2022/08/02 05:00:44;;;;;;;3.20;2.33;;;11.40;99.80;;;;;;5021782;28;20205;-62
2022/08/02 05:03:13;;;;;;;4.30;1.92;;;11.60;97.60;;;;;;5030248;28;20221;-62
2022/08/02 05:05:40;;;;;;;2.58;2.03;;;13.60;99.90;;;;;;5023475;28;20634;-62
2022/08/02 05:08:07;;;;;;;7.20;2.75;;;11.70;99.00;;;;;;5008531;28;20228;-62
2022/08/02 05:10:34;;;;;;;4.50;2.38;;;11.80;99.50;;;;;;5031536;28;20217;-62
2022/08/02 05:13:00;;;;;;;4.47;2.22;;;12.00;99.90;;;;;;5021128;28;20204;-62
2022/08/02 05:15:27;;;;;;;7.30;2.53;;;12.10;99.90;;;;;;5031799;28;20205;-62
2022/08/02 05:17:54;;;;;;;9.50;2.58;;;12.10;99.90;;;;;;5033927;28;20192;-62
2022/08/02 05:20:22;;;;;;;2.63;2.35;;;12.10;99.90;;;;;;5037084;28;20201;-62
2022/08/02 05:22:49;;;;;;;7.15;2.60;;;12.50;99.90;;;;;;4989684;28;21686;-62
2022/08/02 05:25:16;;;;;;;4.40;2.85;;;12.50;99.90;;;;;;5015085;28;20228;-62
2022/08/02 05:27:43;;;;;;;4.70;2.88;;;14.00;99.90;;;;;;5009118;28;20228;-63
2022/08/02 05:30:10;;;;;;;6.32;2.90;;;12.30;99.90;;;;;;5031171;28;20209;-63
2022/08/02 05:32:44;;;;;;;7.75;2.92;;;12.60;99.90;;;;;;5009227;28;20224;-62
2022/08/02 05:35:10;;;;;;;6.00;3.15;;;12.50;99.90;;;;;;5025043;28;20220;-62
2022/08/02 05:37:39;;;;;;;5.18;2.95;;;12.70;99.90;;;;;;5031276;28;20200;-62
2022/08/02 05:40:07;;;;;;;4.82;3.38;;;12.70;99.90;;;;;;5001407;28;20211;-62
2022/08/02 05:42:34;;;;;;;10.32;3.03;;;12.70;99.90;;;;;;4996994;28;20253;-62
2022/08/02 05:45:01;;;;;;;6.65;2.63;;;12.90;99.90;;;;;;5015043;28;20201;-63
2022/08/02 05:47:28;;;;;;;8.27;3.05;;;13.00;99.90;;;;;;5004653;28;20224;-63
2022/08/02 05:49:55;;;;;;;7.57;3.42;;;13.10;99.90;;;;;;5052228;28;20270;-62
2022/08/02 05:52:25;;;;;;;12.43;3.33;;;13.20;99.90;;;;;;5025620;28;20220;-62
2022/08/02 05:55:04;;;;;;;12.73;3.65;;;13.30;99.90;;;;;;5004902;28;20224;-63
2022/08/02 05:57:42;;;;;;;13.52;4.13;;;13.60;99.90;;;;;;5028779;28;20232;-62
2022/08/02 06:00:12;;;;;;;10.52;4.05;;;13.50;99.90;;;;;;5010736;28;20252;-63
2022/08/02 06:02:51;;;;;;;9.15;3.50;;;16.20;99.90;;;;;;5034719;28;20203;-62
2022/08/02 06:05:20;;;;;;;11.32;3.58;;;13.60;99.90;;;;;;5040206;28;20827;-62
2022/08/02 06:07:49;;;;;;;9.57;3.40;;;13.80;99.90;;;;;;5016179;28;20712;-63
2022/08/02 06:10:21;;;;;;;7.65;3.63;;;15.70;99.90;;;;;;4999455;28;20828;-62
2022/08/02 06:12:50;;;;;;;5.57;3.33;;;13.90;99.90;;;;;;5033559;28;20209;-62
2022/08/02 06:15:18;;;;;;;11.48;3.58;;;13.80;99.90;;;;;;5027095;28;20425;-62
2022/08/02 06:17:46;;;;;;;6.45;3.42;;;14.10;99.90;;;;;;5025623;28;20213;-63
2022/08/02 06:20:15;;;;;;;11.77;4.00;;;14.10;99.40;;;;;;5038949;28;20197;-64
2022/08/02 06:22:43;;;;;;;8.15;3.75;;;14.20;99.10;;;;;;5029832;28;21395;-62
2022/08/02 06:25:10;;;;;;;5.63;3.60;;;14.30;99.50;;;;;;5003706;28;20323;-62
2022/08/02 06:27:39;;;;;;;9.27;3.03;;;14.40;99.30;;;;;;5038581;28;20231;-62
2022/08/02 06:30:07;;;;;;;10.27;3.33;;;14.30;98.60;;;;;;5022707;28;20262;-63
2022/08/02 06:32:34;;;;;;;11.30;3.08;;;14.50;96.30;;;;;;5047800;28;20197;-62
2022/08/02 06:35:01;;;;;;;5.57;2.80;;;14.60;95.60;;;;;;5029545;28;20213;-62
2022/08/02 06:37:35;;;;;;;10.82;2.63;;;14.50;95.10;;;;;;5037263;28;20581;-62
2022/08/02 06:40:14;;;;;;;5.72;2.42;;;14.60;93.30;;;;;;5029874;28;20230;-62
2022/08/02 06:42:49;;;;;;;9.98;2.85;;;14.70;92.20;;;;;;5003129;28;20724;-63
2022/08/02 06:45:16;;;;;;;6.78;2.80;;;14.70;89.50;;;;;;5043158;28;21354;-63
2022/08/02 06:47:43;;;;;;;5.78;2.20;;;14.80;86.60;;;;;;5032747;28;20247;-63
2022/08/02 06:50:11;;;;;;;10.75;2.53;;;15.60;82.20;;;;;;5036089;28;20212;-62
2022/08/02 06:52:37;;;;;;;5.68;1.90;;;14.90;79.00;;;;;;5029992;28;20228;-64
2022/08/02 06:55:06;;;;;;;10.13;2.00;;;14.90;75.20;;;;;;5030821;28;20205;-63
2022/08/02 06:57:33;;;;;;;7.53;1.90;;;15.30;70.00;;;;;;5020866;28;20812;-63
2022/08/02 07:00:05;;;;;;;11.57;2.05;;;14.90;64.00;;;;;;5020160;28;20201;-63
2022/08/02 07:02:32;;;;;;;5.43;2.17;;;15.10;58.60;;;;;;5038726;28;20220;-62
2022/08/02 07:04:59;;;;;;;8.05;2.05;;;15.10;54.90;;;;;;5015371;28;20229;-63
2022/08/02 07:07:27;;;;;;;10.70;2.28;;;15.20;53.10;;;;;;5033235;28;20205;-63
2022/08/02 07:09:54;;;;;;;7.60;2.28;;;15.20;53.30;;;;;;5029836;28;20201;-62
2022/08/02 07:12:21;;;;;;;8.52;2.13;;;15.30;47.40;;;;;;5008440;28;20205;-63
2022/08/02 07:14:48;;;;;;;12.88;2.67;;;15.30;44.60;;;;;;5036193;28;20587;-63
2022/08/02 07:17:16;;;;;;;5.38;2.13;;;15.40;39.20;;;;;;5038619;28;20216;-63
2022/08/02 07:19:43;;;;;;;8.75;2.45;;;15.50;34.60;;;;;;5029015;28;21010;-63
2022/08/02 07:22:11;;;;;;;5.78;1.90;;;15.50;30.20;;;;;;5044753;28;20203;-62
2022/08/02 07:24:38;;;;;;;5.80;2.10;;;15.60;27.10;;;;;;5029348;28;20668;-63
2022/08/02 07:27:05;;;;;;;11.38;2.88;;;15.40;20.80;;;;;;5026011;28;21281;-62
2022/08/02 07:29:32;;;;;;;10.43;2.50;;;;;;;;;;5026545;28;20243;-63
2022/08/02 07:31:59;;;;;;;6.10;2.47;;;15.80;12.10;;;;;;5041880;28;20209;-63
2022/08/02 07:34:28;;;;;;;3.13;1.83;;;15.80;8.50;;;;;;5017819;28;21060;-62
2022/08/02 07:36:55;;;;;;;12.75;2.78;;;15.80;3.70;;;;;;5029833;28;20212;-63
2022/08/02 07:39:22;;;;;;;5.43;1.90;;;15.90;1.00;;;;;;5025993;28;20198;-62
2022/08/02 07:41:50;;;;;;;9.63;2.40;;;16.00;1.00;;;;;;5005249;28;20686;-63
2022/08/02 07:44:18;;;;;;;4.53;1.90;;;16.30;1.00;;;;;;5017812;28;20984;-63
2022/08/02 07:46:45;;;;;;;11.63;2.60;;;16.10;1.00;;;;;;5038005;28;20228;-63
2022/08/02 07:49:17;;;;;;;4.55;2.00;;;16.10;1.00;;;;;;5016673;28;20227;-62
2022/08/02 07:51:45;;;;;;;4.07;2.03;;;16.20;1.00;;;;;;5010230;28;20258;-62
2022/08/02 07:54:12;;;;;;;7.70;2.28;;;16.30;1.00;;;;;;5028046;28;20196;-63
2022/08/02 07:56:39;;;;;;;7.10;2.63;;;16.40;1.00;;;;;;5016649;28;20200;-62
2022/08/02 07:59:06;;;;;;;7.88;2.78;;;16.40;1.00;;;;;;5024739;28;20674;-62
2022/08/02 08:01:33;;;;;;;3.72;2.40;;;16.40;1.00;;;;;;5025033;28;20737;-62
2022/08/02 08:03:59;;;;;;;11.25;2.35;;;16.50;1.00;;;;;;5033280;28;20219;-62
2022/08/02 08:06:26;;;;;;;5.32;2.58;;;16.60;1.00;;;;;;5022477;28;20704;-63
2022/08/02 08:08:55;;;;;;;8.10;2.40;;;16.40;1.00;;;;;;5006627;28;21343;-62
2022/08/02 08:11:22;;;;;;;8.68;2.67;;;16.70;1.00;;;;;;5030724;28;20231;-62
2022/08/02 08:13:48;;;;;;;4.43;2.40;;;16.70;1.00;;;;;;5005567;28;20220;-63
2022/08/02 08:16:15;;;;;;;5.05;2.28;;;16.70;1.00;;;;;;5049011;28;20204;-62
2022/08/02 08:18:42;;;;;;;5.85;2.83;;;16.80;1.00;;;;;;5040941;28;20201;-63
2022/08/02 08:21:09;;;;;;;9.43;2.42;;;16.90;1.00;;;;;;5010333;28;20602;-62
2022/08/02 08:23:36;;;;;;;5.75;1.98;;;17.20;1.00;;;;;;5030140;28;20365;-62
2022/08/02 08:26:05;;;;;;;9.70;2.40;;;17.10;1.00;;;;;;5024596;28;20221;-63
2022/08/02 08:28:32;;;;;;;4.78;2.10;;;17.00;1.00;;;;;;5014167;28;20225;-62
2022/08/02 08:30:59;;;;;;;6.07;1.90;;;16.70;1.00;;;;;;5022428;28;20205;-63
2022/08/02 08:33:25;;;;;;;7.05;2.10;;;17.10;1.00;;;;;;5028927;28;20990;-62
2022/08/02 08:35:53;;;;;;;6.68;2.58;;;17.10;1.00;;;;;;5032419;28;21421;-62
2022/08/02 08:38:20;;;;;;;11.00;2.60;;;17.10;1.00;;;;;;4998705;28;20231;-63
2022/08/02 08:40:49;;;;;;;7.30;2.45;;;17.20;1.00;;;;;;5019113;28;20444;-63
2022/08/02 08:43:18;;;;;;;4.65;2.17;;;17.40;1.00;;;;;;5009179;28;20698;-63
2022/08/02 08:45:45;;;;;;;9.15;2.03;;;17.30;1.00;;;;;;4998670;28;20247;-64
2022/08/02 08:48:14;;;;;;;7.32;2.35;;;18.90;1.00;;;;;;5033408;28;20235;-63
2022/08/02 08:50:47;;;;;;;3.47;2.25;;;17.40;1.00;;;;;;5042697;28;20211;-63
2022/08/02 08:53:14;;;;;;;4.20;1.98;;;17.40;1.00;;;;;;5014829;28;20212;-63
2022/08/02 08:55:43;;;;;;;7.07;2.28;;;17.50;1.00;;;;;;5040852;28;20247;-63
2022/08/02 08:58:12;;;;;;;4.13;1.75;;;17.50;1.00;;;;;;5002070;28;21301;-63
2022/08/02 09:00:41;;;;;;;4.43;2.33;;;17.50;1.00;;;;;;5006567;28;20205;-63
2022/08/02 09:03:09;;;;;;;4.13;1.90;;;17.50;1.00;;;;;;5022494;28;20200;-63
2022/08/02 09:05:37;;;;;;;4.45;1.92;;;17.60;99.90;;;;;;5041687;28;20251;-63
2022/08/02 09:08:05;;;;;;;3.90;2.00;;;17.70;99.90;;;;;;5025702;28;20769;-63
2022/08/02 09:10:40;;;;;;;4.47;2.00;;;17.70;99.90;;;;;;5022147;28;20309;-63
2022/08/02 09:13:17;;;;;;;6.38;1.77;;;17.70;99.90;;;;;;5024480;28;20200;-63
2022/08/02 09:15:52;;;;;;;7.53;1.40;;;17.90;99.90;;;;;;5025163;28;20218;-63
2022/08/02 09:18:20;;;;;;;2.83;1.50;;;17.90;99.90;;;;;;5029120;28;20890;-63
2022/08/02 09:20:56;;;;;;;5.68;1.80;;;18.00;1.00;;;;;;5037317;28;20227;-63
2022/08/02 09:23:25;;;;;;;4.20;1.70;;;18.10;1.00;;;;;;5008588;28;21648;-63
2022/08/02 09:25:58;;;;;;;2.55;1.35;;;18.20;1.00;;;;;;5013197;28;20228;-63
2022/08/02 09:28:29;;;;;;;8.48;1.92;;;18.30;99.90;;;;;;4998337;28;20904;-63
2022/08/02 09:31:04;;;;;;;3.47;1.45;;;18.30;1.00;;;;;;5012117;28;20224;-63
2022/08/02 09:33:32;;;;;;;6.40;2.03;;;18.60;1.00;;;;;;5012231;28;20717;-63
2022/08/02 09:36:04;;;;;;;7.93;1.85;;;18.50;1.00;;;;;;5044410;28;20204;-63
2022/08/02 09:38:32;;;;;;;2.75;1.50;;;18.70;1.00;;;;;;5041041;28;20207;-63
2022/08/02 09:40:59;;;;;;;4.75;1.40;;;18.80;1.00;;;;;;5024052;28;20242;-63
2022/08/02 09:43:38;;;;;;;1.88;1.40;;;18.80;99.90;;;;;;4997103;28;20304;-63
2022/08/02 09:46:14;;;;;;;1.90;1.40;;;19.00;31.70;;;;;;5009701;28;20204;-63
2022/08/02 09:48:52;;;;;;;3.10;1.50;;;19.20;93.20;;;;;;5007538;28;20227;-64
2022/08/02 09:51:21;;;;;;;3.25;1.35;;;19.20;1.00;;;;;;5040690;28;20224;-63
2022/08/02 09:53:50;;;;;;;3.30;1.35;;;19.20;3.40;;;;;;5034530;28;21557;-62
2022/08/02 09:56:18;;;;;;;4.93;1.40;;;19.30;1.00;;;;;;5012174;28;20236;-63
2022/08/02 09:58:45;;;;;;;2.50;1.40;;;19.30;1.00;;;;;;5022415;28;20232;-63
2022/08/02 10:01:14;;;;;;;4.68;1.55;;;19.50;1.00;;;;;;5012344;28;20878;-64
2022/08/02 10:03:55;;;;;;;3.97;1.55;;;19.50;1.00;;;;;;5016012;28;20204;-63
2022/08/02 10:06:22;;;;;;;3.42;1.88;;;19.70;13.10;;;;;;5045344;28;20740;-62
2022/08/02 10:08:52;;;;;;;3.20;1.23;;;19.80;1.00;;;;;;5019825;28;20300;-63
2022/08/02 10:11:20;;;;;;;2.75;1.35;;;19.90;1.00;;;;;;5030211;28;20212;-63
2022/08/02 10:13:47;;;;;;;4.05;1.67;;;19.80;99.90;;;;;;5022350;28;20205;-63
2022/08/02 10:16:18;;;;;;;4.65;1.38;;;19.80;99.90;;;;;;5027465;28;20200;-63
2022/08/02 10:18:46;;;;;;;2.03;1.13;;;19.80;5.40;;;;;;5008671;28;20277;-64
2022/08/02 10:21:15;;;;;;;1.38;1.10;;;19.90;1.00;;;;;;5010565;28;20310;-63
2022/08/02 10:23:45;;;;;;;3.20;1.40;;;20.00;1.00;;;;;;5033437;28;20197;-63
2022/08/02 10:26:17;;;;;;;3.42;1.60;;;19.80;1.00;;;;;;5026064;28;20205;-64
2022/08/02 10:28:48;;;;;;;5.03;1.58;;;20.10;1.00;;;;;;5019571;28;20491;-63
2022/08/02 10:31:18;;;;;;;3.90;1.48;;;20.10;1.00;;;;;;5032558;28;20694;-64
2022/08/02 10:33:48;;;;;;;1.90;1.27;;;20.10;1.00;;;;;;5003253;28;20322;-63
2022/08/02 10:36:15;;;;;;;4.47;1.25;;;20.40;1.00;;;;;;5012023;28;20205;-64
2022/08/02 10:38:44;;;;;;;2.78;1.20;;;20.40;1.00;;;;;;5038204;28;20204;-63
2022/08/02 10:41:12;;;;;;;5.40;1.38;;;20.50;99.90;;;;;;5028180;28;20304;-63
2022/08/02 10:43:44;;;;;;;3.70;1.40;;;20.60;99.90;;;;;;5004202;28;20216;-64
2022/08/02 10:46:32;;;;;;;1.60;1.30;;;20.70;99.90;;;;;;5046205;28;20197;-64
2022/08/02 10:49:11;;;;;;;1.92;1.30;;;20.90;82.50;;;;;;5021250;28;20609;-64
2022/08/02 10:52:08;;;;;;;2.97;1.33;;;20.90;65.00;;;;;;5024812;28;20200;-62
2022/08/02 10:54:38;;;;;;;5.10;1.15;;;20.80;1.00;;;;;;5028841;28;20678;-63
2022/08/02 10:57:15;;;;;;;4.30;1.55;;;20.80;1.00;;;;;;5021960;28;20225;-63
2022/08/02 10:59:44;;;;;;;6.30;1.30;;;20.80;69.10;;;;;;5015439;28;20217;-63
2022/08/02 11:02:13;;;;;;;4.55;1.60;;;20.60;99.90;;;;;;5033317;28;20663;-63
2022/08/02 11:05:01;;;;;;;3.33;1.33;;;20.80;99.90;;;;;;5002421;28;20220;-64
2022/08/02 11:07:33;;;;;;;2.42;1.30;;;21.00;99.90;;;;;;5017945;28;20212;-63
2022/08/02 11:10:38;;;;;;;2.28;1.17;;;20.90;95.20;;;;;;5041791;22;20291;-63
2022/08/02 11:13:09;;;;;;;3.60;1.40;;;21.10;93.50;;;;;;5030698;28;20220;-63
2022/08/02 11:16:01;;;;;;;2.58;1.40;;;21.00;1.00;;;;;;5028213;28;20224;-63
2022/08/02 11:21:39;;;;;;;5.25;1.45;;;21.10;92.10;;;;;;5010960;27;20613;-64
2022/08/02 11:24:28;;;;;;;3.88;1.35;;;21.20;1.00;;;;;;5021904;28;20713;-64
2022/08/02 11:26:56;;;;;;;3.35;1.50;;;21.30;27.40;;;;;;5029769;28;20205;-63
2022/08/02 11:29:32;;;;;;;5.43;1.33;;;21.40;1.00;;;;;;5023048;28;20895;-63
2022/08/02 11:31:59;;;;;;;3.60;1.38;;;21.50;1.00;;;;;;5029411;28;20204;-64
2022/08/02 11:34:27;;;;;;;7.80;1.42;;;21.80;8.50;;;;;;5009248;28;20209;-63
2022/08/02 11:36:55;;;;;;;5.93;1.30;;;21.60;1.00;;;;;;4998687;28;22882;-63
2022/08/02 11:39:23;;;;;;;3.88;1.30;;;21.60;31.30;;;;;;5023395;28;20225;-63
2022/08/02 11:41:52;;;;;;;1.70;1.10;;;21.60;5.20;;;;;;5020365;28;20225;-64
2022/08/02 11:44:19;;;;;;;2.10;1.30;;;21.50;29.70;;;;;;5016361;28;20237;-63
2022/08/02 11:46:53;;;;;;;3.15;1.73;;;21.70;1.00;;;;;;5016081;28;20230;-63
2022/08/02 11:49:20;;;;;;;2.45;1.60;;;21.70;1.00;;;;;;5028663;28;20227;-63
2022/08/02 11:51:58;;;;;;;2.08;1.35;;;21.90;99.90;;;;;;4985888;28;21128;-63
2022/08/02 11:54:27;;;;;;;1.92;1.30;;;21.90;99.90;;;;;;5000967;28;20816;-64
2022/08/02 11:56:54;;;;;;;3.65;1.40;;;21.90;99.90;;;;;;5024297;28;20205;-63
2022/08/02 11:59:21;;;;;;;3.47;1.50;;;22.00;99.90;;;;;;5009317;28;20205;-64
2022/08/02 12:01:48;;;;;;;2.20;1.10;;;22.00;99.90;;;;;;5011476;28;20243;-64
2022/08/02 12:04:20;;;;;;;3.45;1.60;;;22.10;99.90;;;;;;5005428;28;21216;-64
2022/08/02 12:06:59;;;;;;;1.90;1.30;;;22.10;99.90;;;;;;5002672;28;20221;-63
2022/08/02 12:09:28;;;;;;;5.80;1.52;;;22.10;99.90;;;;;;5027709;28;20201;-63
2022/08/02 12:11:55;;;;;;;2.38;1.25;;;22.10;99.90;;;;;;5035580;28;20314;-63
2022/08/02 12:14:23;;;;;;;1.95;1.25;;;22.30;99.90;;;;;;5025891;28;20211;-64
2022/08/02 12:19:35;;;;;;;1.23;1.10;;;22.10;99.90;;;;;;5022337;28;20263;-64
2022/08/02 12:22:16;;;;;;;3.58;1.55;;;22.00;99.90;;;;;;5006976;28;20208;-64
2022/08/02 12:24:45;;;;;;;3.80;1.35;;;22.20;99.90;;;;;;4984574;28;20202;-64
2022/08/02 12:27:29;;;;;;;5.13;1.40;;;22.20;99.90;;;;;;5012804;28;20225;-64
2022/08/02 12:30:00;;;;;;;3.17;1.50;;;22.20;99.90;;;;;;4995403;28;21108;-64
2022/08/02 12:32:28;;;;;;;10.25;1.80;;;22.30;99.90;;;;;;4999969;28;20222;-63
2022/08/02 12:35:03;;;;;;;7.22;1.67;;;22.60;99.90;;;;;;4989444;28;20221;-63
2022/08/02 12:37:32;;;;;;;2.45;1.10;;;22.50;99.90;;;;;;5015069;28;20232;-63
2022/08/02 12:39:59;;;;;;;1.77;1.40;;;21.30;99.90;;;;;;4988759;28;20233;-63
2022/08/02 12:42:26;;;;;;;1.30;1.20;;;22.90;99.90;;;;;;4951692;23;20232;-64
2022/08/02 12:44:54;;;;;;;4.88;1.50;;;22.80;99.90;;;;;;4914538;28;20203;-65
2022/08/02 12:47:21;;;;;;;1.85;1.35;;;22.50;99.90;;;;;;4936915;28;20226;-64
2022/08/02 12:50:13;;;;;;;2.17;1.67;;;27.10;99.90;;;;;;4925875;28;20226;-64
2022/08/02 12:52:40;;;;;;;6.03;1.88;;;23.10;99.90;;;;;;4933055;28;20234;-63
2022/08/02 12:55:16;;;;;;;4.28;1.73;;;23.00;99.90;;;;;;4912132;28;20214;-64
2022/08/02 12:57:52;;;;;;;4.60;1.70;;;22.90;99.90;;;;;;4943275;28;20203;-63
2022/08/02 13:00:23;;;;;;;2.88;1.63;;;23.20;99.90;;;;;;4952926;28;20227;-64
2022/08/02 13:02:50;;;;;;;3.53;1.83;;;23.40;99.90;;;;;;4918517;28;20224;-64
2022/08/02 13:05:19;;;;;;;3.55;1.75;;;23.30;99.90;;;;;;4937298;28;20398;-64
2022/08/02 13:07:45;;;;;;;3.67;1.83;;;23.40;99.90;;;;;;4937398;28;20216;-64
2022/08/02 13:10:18;;;;;;;3.58;1.83;;;23.60;99.90;;;;;;4928642;28;20218;-64